Time;durP1;ratioP1;P1;durP2;ratioP2;P2;SDS_P1;SDS_P2;PMS_P1;PMS_P2;Temp;Humidity;BMP_temperature;BMP_pressure;BME280_temperature;BME280_humidity;BME280_pressure;Samples;Min_cycle;Max_cycle;Signal;HPM_P1;HPM_P2
2023/01/22 00:01:16;;;;;;;3.85;2.05;;;;;;;;;;5055314;28;20028;-80
2023/01/22 00:03:42;;;;;;;2.47;1.75;;;;;;;;;;5055396;28;20386;-80
2023/01/22 00:06:08;;;;;;;3.05;1.92;;;;;;;;;;5060600;28;20040;-82
2023/01/22 00:08:34;;;;;;;3.78;2.10;;;;;;;;;;5062770;28;20497;-83
2023/01/22 00:10:59;;;;;;;3.22;1.80;;;;;;;;;;5061862;28;20066;-83
2023/01/22 00:13:26;;;;;;;3.25;2.13;;;;;;;;;;5062562;28;20032;-83
2023/01/22 00:15:52;;;;;;;4.25;2.30;;;;;;;;;;5062336;28;20032;-81
2023/01/22 00:18:18;;;;;;;4.07;2.03;;;;;;;;;;5061090;28;20024;-83
2023/01/22 00:20:47;;;;;;;4.90;2.00;;;;;;;;;;5062680;28;20033;-82
2023/01/22 00:23:13;;;;;;;3.28;1.98;;;;;;;;;;5062087;28;20458;-83
2023/01/22 00:25:38;;;;;;;5.10;1.90;;;;;;;;;;5061051;28;20036;-82
2023/01/22 00:28:03;;;;;;;4.82;2.08;;;;;;;;;;5060614;28;20025;-82
2023/01/22 00:30:29;;;;;;;6.25;2.13;;;;;;;;;;5061416;28;20029;-84
2023/01/22 00:32:54;;;;;;;4.05;2.28;;;;;;;;;;5065924;28;20064;-81
2023/01/22 00:35:19;;;;;;;3.33;2.20;;;;;;;;;;5063188;28;20547;-81
2023/01/22 00:37:47;;;;;;;2.88;1.80;;;;;;;;;;5064374;28;20025;-80
2023/01/22 00:40:13;;;;;;;3.85;2.05;;;;;;;;;;5063341;28;20027;-85
2023/01/22 00:42:38;;;;;;;3.70;1.80;;;;;;;;;;5064777;28;20040;-83
2023/01/22 00:45:04;;;;;;;3.80;1.95;;;;;;;;;;5063847;28;20021;-83
2023/01/22 00:47:29;;;;;;;2.42;1.95;;;;;;;;;;5064648;28;20028;-81
2023/01/22 00:49:55;;;;;;;3.45;2.00;;;;;;;;;;5064104;28;20076;-83
2023/01/22 00:52:20;;;;;;;4.60;1.88;;;;;;;;;;5064384;28;20025;-82
2023/01/22 00:54:45;;;;;;;2.65;1.67;;;;;;;;;;5064972;28;20103;-83
2023/01/22 00:57:11;;;;;;;4.72;2.42;;;;;;;;;;5063783;28;20025;-82
2023/01/22 00:59:36;;;;;;;4.55;2.53;;;;;;;;;;5064232;28;20029;-82
2023/01/22 01:02:01;;;;;;;2.38;1.65;;;;;;;;;;5063494;28;20060;-81
2023/01/22 01:04:26;;;;;;;6.18;2.42;;;;;;;;;;5063894;28;20021;-83
2023/01/22 01:06:52;;;;;;;4.65;2.08;;;;;;;;;;5063263;28;20550;-82
2023/01/22 01:09:17;;;;;;;3.30;2.08;;;;;;;;;;5063325;28;20043;-82
2023/01/22 01:11:42;;;;;;;2.92;1.92;;;;;;;;;;5063655;28;20024;-84
2023/01/22 01:14:08;;;;;;;3.70;2.47;;;;;;;;;;5063299;28;20052;-82
2023/01/22 01:16:35;;;;;;;4.45;2.80;;;;;;;;;;5062766;28;20029;-82
2023/01/22 01:19:04;;;;;;;3.67;2.03;;;;;;;;;;5063092;28;20025;-83
2023/01/22 01:21:30;;;;;;;3.13;2.20;;;;;;;;;;5063245;28;20033;-83
2023/01/22 01:23:56;;;;;;;3.47;2.30;;;;;;;;;;5062251;28;20032;-82
2023/01/22 01:26:22;;;;;;;5.00;2.60;;;;;;;;;;5060931;28;20064;-81
2023/01/22 01:28:54;;;;;;;3.78;2.03;;;;;;;;;;5062059;28;20044;-82
2023/01/22 01:31:21;;;;;;;5.85;2.70;;;;;;;;;;5060837;28;20025;-82
2023/01/22 01:33:46;;;;;;;3.97;2.33;;;;;;;;;;5061578;28;20096;-82
2023/01/22 01:36:17;;;;;;;4.88;2.72;;;;;;;;;;5062596;28;20024;-82
2023/01/22 01:38:43;;;;;;;5.57;3.15;;;;;;;;;;5063322;28;20051;-82
2023/01/22 01:41:11;;;;;;;5.10;2.67;;;;;;;;;;5062715;28;20466;-82
2023/01/22 01:43:36;;;;;;;4.25;2.42;;;;;;;;;;5060960;28;20021;-82
2023/01/22 01:46:04;;;;;;;4.72;3.00;;;;;;;;;;5062313;28;20104;-82
2023/01/22 01:48:42;;;;;;;5.28;3.03;;;;;;;;;;5062458;28;20033;-81
2023/01/22 01:51:21;;;;;;;4.25;2.80;;;;;;;;;;5061708;28;20104;-81
2023/01/22 01:53:48;;;;;;;5.07;2.78;;;;;;;;;;5062499;28;20029;-82
2023/01/22 01:56:22;;;;;;;5.43;3.08;;;;;;;;;;5060871;28;20029;-83
2023/01/22 01:58:52;;;;;;;4.40;2.55;;;;;;;;;;5061459;28;20040;-82
2023/01/22 02:01:18;;;;;;;4.82;3.03;;;;;;;;;;5060813;28;20095;-81
2023/01/22 02:03:45;;;;;;;5.60;2.78;;;;;;;;;;5062111;28;20021;-81
2023/01/22 02:06:12;;;;;;;4.85;2.95;;;;;;;;;;5061123;28;20029;-82
2023/01/22 02:08:39;;;;;;;3.90;2.70;;;;;;;;;;5059691;28;20116;-81
2023/01/22 02:11:08;;;;;;;5.07;3.00;;;;;;;;;;5059379;28;20047;-82
2023/01/22 02:13:35;;;;;;;4.65;2.95;;;;;;;;;;5059313;28;20033;-82
2023/01/22 02:16:00;;;;;;;3.88;2.72;;;;;;;;;;5058128;28;20037;-82
2023/01/22 02:18:26;;;;;;;5.88;3.10;;;;;;;;;;5058379;28;20548;-81
2023/01/22 02:20:56;;;;;;;4.82;2.85;;;;;;;;;;5057976;28;20106;-81
2023/01/22 02:23:22;;;;;;;4.53;2.30;;;;;;;;;;5057465;28;20035;-81
2023/01/22 02:25:47;;;;;;;4.85;2.67;;;;;;;;;;5058335;28;20024;-81
2023/01/22 02:28:12;;;;;;;3.88;2.33;;;;;;;;;;5059055;28;20029;-81
2023/01/22 02:30:38;;;;;;;3.38;2.30;;;;;;;;;;5058924;28;20055;-81
2023/01/22 02:33:03;;;;;;;4.80;2.40;;;;;;;;;;5057452;28;20071;-82
2023/01/22 02:35:28;;;;;;;5.05;3.00;;;;;;;;;;5058156;28;20027;-82
2023/01/22 02:37:53;;;;;;;3.20;2.13;;;;;;;;;;5058295;28;20021;-81
2023/01/22 02:40:19;;;;;;;3.25;2.20;;;;;;;;;;5060994;28;20035;-81
2023/01/22 02:42:44;;;;;;;3.67;2.25;;;;;;;;;;5058936;28;20017;-81
2023/01/22 02:45:10;;;;;;;8.15;2.70;;;;;;;;;;5058646;28;20466;-81
2023/01/22 02:47:35;;;;;;;3.28;2.25;;;;;;;;;;5057356;28;20544;-81
2023/01/22 02:50:01;;;;;;;4.18;2.45;;;;;;;;;;5059663;28;20040;-82
2023/01/22 02:52:26;;;;;;;4.03;2.40;;;;;;;;;;5059055;28;20053;-82
2023/01/22 02:54:51;;;;;;;3.25;2.22;;;;;;;;;;5058948;28;20025;-82
2023/01/22 02:57:17;;;;;;;3.63;2.38;;;;;;;;;;5059081;28;20037;-81
2023/01/22 02:59:42;;;;;;;4.60;2.72;;;;;;;;;;5058687;28;20558;-81
2023/01/22 03:02:07;;;;;;;4.00;2.40;;;;;;;;;;5059027;28;20106;-81
2023/01/22 03:04:32;;;;;;;7.13;2.67;;;;;;;;;;5058943;28;20021;-81
2023/01/22 03:06:57;;;;;;;4.88;2.60;;;;;;;;;;5059097;28;20025;-82
2023/01/22 03:09:23;;;;;;;4.75;2.67;;;;;;;;;;5059721;28;20031;-82
2023/01/22 03:11:48;;;;;;;3.65;2.40;;;;;;;;;;5059648;28;20020;-81
2023/01/22 03:22:26;;;;;;;4.88;2.85;;;;;;;;;;5059596;28;20039;-82
2023/01/22 03:24:52;;;;;;;4.85;2.90;;;;;;;;;;5059297;28;20028;-83
2023/01/22 03:27:19;;;;;;;4.63;2.85;;;;;;;;;;5058757;28;20032;-82
2023/01/22 03:29:45;;;;;;;5.10;2.30;;;;;;;;;;5059669;28;20031;-83
2023/01/22 03:32:11;;;;;;;3.50;2.45;;;;;;;;;;5060526;28;20021;-81
2023/01/22 03:34:36;;;;;;;5.90;3.05;;;;;;;;;;5057807;28;20017;-82
2023/01/22 03:37:02;;;;;;;5.63;3.08;;;;;;;;;;5057753;28;20071;-82
2023/01/22 03:39:30;;;;;;;4.95;2.80;;;;;;;;;;5056830;28;20379;-82
2023/01/22 03:41:55;;;;;;;4.70;2.80;;;;;;;;;;5057348;28;20028;-81
2023/01/22 03:44:20;;;;;;;4.95;2.67;;;;;;;;;;5057803;28;20485;-81
2023/01/22 03:46:45;;;;;;;5.65;3.17;;;;;;;;;;5059709;28;20367;-80
2023/01/22 03:49:12;;;;;;;6.97;2.65;;;;;;;;;;5057653;28;20033;-81
2023/01/22 03:51:37;;;;;;;5.57;3.08;;;;;;;;;;5058758;28;20025;-82
2023/01/22 03:54:03;;;;;;;4.80;3.15;;;;;;;;;;5057545;28;20031;-82
2023/01/22 03:56:28;;;;;;;4.80;3.30;;;;;;;;;;5057564;28;20025;-82
2023/01/22 03:58:55;;;;;;;5.78;3.58;;;;;;;;;;5057046;28;20123;-82
2023/01/22 04:01:22;;;;;;;4.47;2.63;;;;;;;;;;5058244;28;20025;-81
2023/01/22 04:03:48;;;;;;;6.38;3.17;;;;;;;;;;5056802;28;20036;-82
2023/01/22 04:06:14;;;;;;;6.57;3.05;;;;;;;;;;5057867;28;20498;-82
2023/01/22 04:08:41;;;;;;;4.22;3.20;;;;;;;;;;5061021;28;20094;-82
2023/01/22 04:11:07;;;;;;;6.30;3.28;;;;;;;;;;5060997;28;20068;-82
2023/01/22 04:13:35;;;;;;;5.00;2.95;;;;;;;;;;5059793;28;20016;-82
2023/01/22 04:16:00;;;;;;;4.82;3.05;;;;;;;;;;5061955;28;20415;-82
2023/01/22 04:18:26;;;;;;;5.25;2.90;;;;;;;;;;5061584;28;20055;-82
2023/01/22 04:20:51;;;;;;;8.27;3.20;;;;;;;;;;5061610;28;20096;-82
2023/01/22 04:23:17;;;;;;;7.07;3.55;;;;;;;;;;5061603;28;20033;-82
2023/01/22 04:25:43;;;;;;;4.57;2.88;;;;;;;;;;5061495;28;20051;-81
2023/01/22 04:28:13;;;;;;;4.78;2.95;;;;;;;;;;5060695;28;20021;-82
2023/01/22 04:30:39;;;;;;;4.68;2.88;;;;;;;;;;5059951;28;20017;-82
2023/01/22 04:33:04;;;;;;;5.13;2.95;;;;;;;;;;5061572;28;20029;-81
2023/01/22 04:35:30;;;;;;;6.57;3.92;;;;;;;;;;5061006;28;20079;-82
2023/01/22 04:37:56;;;;;;;6.00;3.53;;;;;;;;;;5060104;28;20032;-82
2023/01/22 04:40:22;;;;;;;8.25;3.78;;;;;;;;;;5061308;28;20021;-82
2023/01/22 04:42:47;;;;;;;5.97;3.55;;;;;;;;;;5060051;28;20096;-82
2023/01/22 04:45:13;;;;;;;6.07;3.63;;;;;;;;;;5060030;28;20100;-81
2023/01/22 04:47:43;;;;;;;6.43;3.90;;;;;;;;;;5061003;28;20058;-81
2023/01/22 04:50:15;;;;;;;7.70;3.85;;;;;;;;;;5062062;28;20051;-81
2023/01/22 04:52:40;;;;;;;7.13;3.50;;;;;;;;;;5060077;28;20024;-81
2023/01/22 04:55:06;;;;;;;8.45;3.80;;;;;;;;;;5061897;28;20032;-81
2023/01/22 04:57:35;;;;;;;7.05;3.70;;;;;;;;;;5061126;28;20017;-80
2023/01/22 05:00:00;;;;;;;6.30;3.95;;;;;;;;;;5060123;28;20029;-81
2023/01/22 05:02:25;;;;;;;5.95;3.67;;;;;;;;;;5059095;28;20024;-81
2023/01/22 05:04:50;;;;;;;5.85;3.63;;;;;;;;;;5061362;28;20017;-81
2023/01/22 05:07:16;;;;;;;5.97;3.90;;;;;;;;;;5061608;28;20056;-81
2023/01/22 05:09:41;;;;;;;7.65;3.90;;;;;;;;;;5061239;28;20033;-80
2023/01/22 05:12:06;;;;;;;7.18;3.80;;;;;;;;;;5059353;28;20036;-81
2023/01/22 05:14:31;;;;;;;4.93;3.28;;;;;;;;;;5061280;28;20029;-81
2023/01/22 05:16:57;;;;;;;6.63;3.80;;;;;;;;;;5058980;28;20512;-81
2023/01/22 05:19:22;;;;;;;5.57;3.67;;;;;;;;;;5060769;28;20389;-81
2023/01/22 05:21:47;;;;;;;7.53;4.03;;;;;;;;;;5060702;28;20501;-81
2023/01/22 05:24:12;;;;;;;8.07;3.72;;;;;;;;;;5060481;28;20486;-80
2023/01/22 05:26:38;;;;;;;9.32;3.95;;;;;;;;;;5060473;28;20448;-81
2023/01/22 05:29:03;;;;;;;9.82;3.88;;;;;;;;;;5078969;28;20040;-82
2023/01/22 05:31:28;;;;;;;6.90;3.58;;;;;;;;;;5075503;28;20540;-82
2023/01/22 05:33:53;;;;;;;10.30;3.75;;;;;;;;;;5068009;28;20052;-82
2023/01/22 05:36:18;;;;;;;6.80;4.07;;;;;;;;;;5079034;28;20033;-82
2023/01/22 05:38:46;;;;;;;5.68;3.63;;;;;;;;;;5079672;28;20028;-82
2023/01/22 05:41:11;;;;;;;6.90;3.97;;;;;;;;;;5080187;28;20072;-83
2023/01/22 05:43:37;;;;;;;6.72;4.05;;;;;;;;;;5079695;28;20024;-82
2023/01/22 05:46:03;;;;;;;7.63;4.22;;;;;;;;;;5078886;28;20017;-82
2023/01/22 05:48:31;;;;;;;7.03;3.90;;;;;;;;;;5079817;28;20047;-82
2023/01/22 05:50:56;;;;;;;6.30;3.75;;;;;;;;;;5079540;28;20054;-81
2023/01/22 05:53:21;;;;;;;6.82;3.95;;;;;;;;;;5079716;28;20020;-83
2023/01/22 05:55:46;;;;;;;7.47;4.10;;;;;;;;;;5076993;28;20005;-81
2023/01/22 05:58:12;;;;;;;6.10;3.88;;;;;;;;;;5076021;28;20041;-81
2023/01/22 06:00:37;;;;;;;7.47;3.95;;;;;;;;;;5075509;28;20025;-81
2023/01/22 06:03:02;;;;;;;6.75;3.83;;;;;;;;;;5076725;28;20044;-80
2023/01/22 06:05:27;;;;;;;6.93;3.88;;;;;;;;;;5076531;28;20031;-80
2023/01/22 06:07:53;;;;;;;7.53;4.00;;;;;;;;;;5062244;28;20029;-82
2023/01/22 06:10:18;;;;;;;6.85;3.85;;;;;;;;;;5060191;28;20088;-81
2023/01/22 06:12:43;;;;;;;8.93;4.05;;;;;;;;;;5060593;28;20095;-82
2023/01/22 06:15:10;;;;;;;9.05;4.07;;;;;;;;;;5055606;28;20071;-81
2023/01/22 06:17:35;;;;;;;7.40;4.00;;;;;;;;;;5056640;28;20056;-81
2023/01/22 06:20:01;;;;;;;6.40;3.92;;;;;;;;;;5054187;28;20043;-82
2023/01/22 06:22:26;;;;;;;9.48;4.10;;;;;;;;;;5055093;28;20017;-82
2023/01/22 06:24:51;;;;;;;7.68;3.35;;;;;;;;;;5056668;28;20025;-82
2023/01/22 06:27:16;;;;;;;7.82;3.90;;;;;;;;;;5057313;28;20052;-82
2023/01/22 06:29:42;;;;;;;7.63;4.20;;;;;;;;;;5059514;28;20021;-81
2023/01/22 06:32:07;;;;;;;7.22;4.00;;;;;;;;;;5058209;28;20036;-81
2023/01/22 06:34:32;;;;;;;6.97;3.60;;;;;;;;;;5058148;28;20028;-81
2023/01/22 06:36:58;;;;;;;6.50;3.88;;;;;;;;;;5057318;28;20391;-80
2023/01/22 06:39:23;;;;;;;5.95;3.67;;;;;;;;;;5057454;28;20539;-80
2023/01/22 06:41:48;;;;;;;7.30;3.97;;;;;;;;;;5057286;28;20051;-80
2023/01/22 06:44:14;;;;;;;8.98;4.43;;;;;;;;;;5057210;28;20047;-80
2023/01/22 06:46:39;;;;;;;6.82;4.18;;;;;;;;;;5057629;28;20060;-81
2023/01/22 06:49:04;;;;;;;6.97;4.22;;;;;;;;;;5057590;28;20029;-81
2023/01/22 06:51:30;;;;;;;7.07;3.95;;;;;;;;;;5058586;28;20040;-81
2023/01/22 06:53:55;;;;;;;6.22;3.33;;;;;;;;;;5061828;28;20025;-82
2023/01/22 06:56:21;;;;;;;7.90;3.83;;;;;;;;;;5060182;28;20338;-81
2023/01/22 06:58:46;;;;;;;6.28;3.75;;;;;;;;;;5058585;28;20433;-81
2023/01/22 07:01:11;;;;;;;9.35;4.20;;;;;;;;;;5059133;28;20043;-81
2023/01/22 07:03:37;;;;;;;6.82;4.00;;;;;;;;;;5060577;28;20036;-82
2023/01/22 07:06:03;;;;;;;7.75;4.05;;;;;;;;;;5063072;28;20060;-81
2023/01/22 07:08:32;;;;;;;6.38;4.20;;;;;;;;;;5059488;28;20104;-81
2023/01/22 07:10:58;;;;;;;6.30;2.97;;;;;;;;;;5059165;28;20021;-81
2023/01/22 07:13:24;;;;;;;7.35;4.03;;;;;;;;;;5059386;28;20162;-81
2023/01/22 07:15:49;;;;;;;6.20;3.65;;;;;;;;;;5057576;28;20068;-80
2023/01/22 07:18:18;;;;;;;7.32;3.95;;;;;;;;;;5059577;28;20528;-80
2023/01/22 07:20:43;;;;;;;8.75;4.45;;;;;;;;;;5059196;28;20025;-81
2023/01/22 07:23:09;;;;;;;9.85;5.00;;;;;;;;;;5058904;28;20033;-80
2023/01/22 07:25:34;;;;;;;8.23;4.40;;;;;;;;;;5058137;28;20028;-81
2023/01/22 07:28:01;;;;;;;9.27;3.97;;;;;;;;;;5060265;28;20032;-81
2023/01/22 07:30:27;;;;;;;6.45;3.60;;;;;;;;;;5059953;28;20028;-81
2023/01/22 07:32:52;;;;;;;7.65;4.18;;;;;;;;;;5061220;28;20025;-81
2023/01/22 07:35:17;;;;;;;9.27;4.50;;;;;;;;;;5060334;28;20040;-81
2023/01/22 07:37:50;;;;;;;7.93;4.03;;;;;;;;;;5058766;28;20079;-80
2023/01/22 07:40:15;;;;;;;7.97;3.97;;;;;;;;;;5061812;28;20433;-81
2023/01/22 07:42:40;;;;;;;8.13;3.70;;;;;;;;;;5062780;28;20024;-82
2023/01/22 07:45:06;;;;;;;7.03;4.10;;;;;;;;;;5063031;28;20538;-82
2023/01/22 07:47:31;;;;;;;7.03;4.13;;;;;;;;;;5062927;28;20055;-81
2023/01/22 07:49:57;;;;;;;7.03;4.07;;;;;;;;;;5061823;28;20021;-82
2023/01/22 07:52:22;;;;;;;4.38;2.92;;;;;;;;;;5064211;28;20028;-81
2023/01/22 07:54:47;;;;;;;7.32;3.28;;;;;;;;;;5062538;28;20116;-81
2023/01/22 07:57:14;;;;;;;6.22;3.13;;;;;;;;;;5063314;28;20120;-81
2023/01/22 07:59:40;;;;;;;6.40;3.20;;;;;;;;;;5062804;28;20108;-81
2023/01/22 08:02:05;;;;;;;5.28;3.15;;;;;;;;;;5064007;28;20091;-81
2023/01/22 08:04:30;;;;;;;4.82;2.80;;;;;;;;;;5065105;28;20462;-81
2023/01/22 08:07:01;;;;;;;5.93;3.45;;;;;;;;;;5064051;28;20470;-80
2023/01/22 08:09:26;;;;;;;7.82;3.35;;;;;;;;;;5062740;28;20021;-80
2023/01/22 08:11:52;;;;;;;5.97;3.03;;;;;;;;;;5063197;28;20025;-81
2023/01/22 08:14:17;;;;;;;6.55;3.33;;;;;;;;;;5064539;28;20071;-81
2023/01/22 08:16:42;;;;;;;6.32;3.38;;;;;;;;;;5064901;28;20029;-83
2023/01/22 08:19:08;;;;;;;7.93;3.25;;;;;;;;;;5064807;28;20080;-80
2023/01/22 08:21:33;;;;;;;5.03;3.00;;;;;;;;;;5064343;28;20539;-82
2023/01/22 08:23:58;;;;;;;5.47;3.30;;;;;;;;;;5064962;28;20100;-82
2023/01/22 08:26:24;;;;;;;6.60;2.97;;;;;;;;;;5063653;28;20036;-81
2023/01/22 08:28:49;;;;;;;5.35;3.35;;;;;;;;;;5065583;28;20295;-81
2023/01/22 08:31:14;;;;;;;7.00;3.50;;;;;;;;;;5063304;28;20033;-82
2023/01/22 08:33:39;;;;;;;6.65;3.28;;;;;;;;;;5064019;28;20033;-82
2023/01/22 08:36:05;;;;;;;7.53;4.10;;;;;;;;;;5063343;28;20387;-82
2023/01/22 08:38:30;;;;;;;9.43;4.07;;;;;;;;;;5062664;28;20389;-81
2023/01/22 08:40:55;;;;;;;5.90;3.42;;;;;;;;;;5062243;28;20060;-82
2023/01/22 08:43:21;;;;;;;6.15;3.38;;;;;;;;;;5061443;28;20025;-81
2023/01/22 08:45:47;;;;;;;6.25;3.17;;;;;;;;;;5060495;28;20043;-82
2023/01/22 08:48:12;;;;;;;9.05;4.80;;;;;;;;;;5061471;28;20029;-82
2023/01/22 08:50:37;;;;;;;8.88;4.63;;;;;;;;;;5064196;28;20024;-80
2023/01/22 08:53:06;;;;;;;7.82;4.60;;;;;;;;;;5062241;28;20036;-81
2023/01/22 08:55:31;;;;;;;7.95;4.13;;;;;;;;;;5060340;28;20119;-81
2023/01/22 08:57:56;;;;;;;6.72;4.05;;;;;;;;;;5062022;28;20090;-81
2023/01/22 09:00:23;;;;;;;7.55;4.43;;;;;;;;;;5061112;28;20492;-81
2023/01/22 09:02:48;;;;;;;7.40;4.18;;;;;;;;;;5064250;28;20394;-81
2023/01/22 09:05:14;;;;;;;7.65;4.32;;;;;;;;;;5062280;28;20099;-81
2023/01/22 09:07:39;;;;;;;9.35;4.45;;;;;;;;;;5060205;28;20021;-81
2023/01/22 09:10:11;;;;;;;7.40;3.90;;;;;;;;;;5062455;28;20458;-82
2023/01/22 09:12:36;;;;;;;7.90;3.95;;;;;;;;;;5061591;28;20381;-81
2023/01/22 09:15:02;;;;;;;9.43;4.90;;;;;;;;;;5060353;28;20021;-82
2023/01/22 09:17:27;;;;;;;8.30;4.85;;;;;;;;;;5060125;28;20028;-81
2023/01/22 09:19:52;;;;;;;8.93;4.95;;;;;;;;;;5060377;28;20075;-81
2023/01/22 09:22:19;;;;;;;8.57;4.75;;;;;;;;;;5061912;28;20052;-81
2023/01/22 09:24:44;;;;;;;7.43;4.22;;;;;;;;;;5063619;28;20075;-81
2023/01/22 09:27:10;;;;;;;7.13;3.70;;;;;;;;;;5063125;28;20021;-81
2023/01/22 09:29:36;;;;;;;11.48;5.68;;;;;;;;;;5061665;28;20116;-80
2023/01/22 09:32:02;;;;;;;10.10;5.30;;;;;;;;;;5062988;28;20075;-81
2023/01/22 09:34:27;;;;;;;7.13;4.60;;;;;;;;;;5063682;28;20021;-81
2023/01/22 09:36:52;;;;;;;9.98;5.78;;;;;;;;;;5063242;28;20497;-80
2023/01/22 09:39:18;;;;;;;8.82;4.70;;;;;;;;;;5062698;28;20029;-81
2023/01/22 09:41:48;;;;;;;10.95;5.68;;;;;;;;;;5062088;28;20031;-80
2023/01/22 09:44:20;;;;;;;11.15;5.50;;;;;;;;;;5060543;28;20028;-80
2023/01/22 09:46:54;;;;;;;16.33;4.57;;;;;;;;;;5061107;28;20025;-80
2023/01/22 09:49:26;;;;;;;11.70;5.53;;;;;;;;;;5059241;28;20029;-80
2023/01/22 09:51:59;;;;;;;12.15;5.55;;;;;;;;;;5058811;28;20032;-80
2023/01/22 09:54:27;;;;;;;11.33;6.13;;;;;;;;;;5061138;28;20389;-82
2023/01/22 09:56:56;;;;;;;11.25;5.97;;;;;;;;;;5061924;28;20246;-81
2023/01/22 09:59:25;;;;;;;9.55;5.47;;;;;;;;;;5062107;28;20025;-81
2023/01/22 10:01:54;;;;;;;10.10;5.00;;;;;;;;;;5063086;28;20559;-81
2023/01/22 10:04:32;;;;;;;8.90;4.95;;;;;;;;;;5060017;28;20035;-82
2023/01/22 10:06:59;;;;;;;9.73;5.30;;;;;;;;;;5061720;28;20031;-79
2023/01/22 10:09:29;;;;;;;9.02;4.85;;;;;;;;;;5058963;28;20060;-76
2023/01/22 10:11:55;;;;;;;10.70;5.25;;;;;;;;;;5054478;28;20036;-76
2023/01/22 10:14:24;;;;;;;10.65;5.15;;;;;;;;;;5054406;28;20025;-77
2023/01/22 10:16:50;;;;;;;10.95;6.00;;;;;;;;;;5054682;28;20099;-77
2023/01/22 10:19:22;;;;;;;8.65;4.15;;;;;;;;;;5054677;28;20470;-77
2023/01/22 10:21:52;;;;;;;11.48;5.88;;;;;;;;;;5053074;28;20029;-77
2023/01/22 10:24:17;;;;;;;14.60;5.60;;;;;;;;;;5054562;28;20029;-77
2023/01/22 10:26:53;;;;;;;10.63;5.97;;;;;;;;;;5054489;28;20032;-76
2023/01/22 10:29:31;;;;;;;9.45;4.80;;;;;;;;;;5055631;28;20072;-78
2023/01/22 10:31:59;;;;;;;10.82;6.15;;;;;;;;;;5059441;28;20028;-80
2023/01/22 10:34:33;;;;;;;10.65;6.07;;;;;;;;;;5057827;28;20025;-81
2023/01/22 10:37:14;;;;;;;9.27;5.10;;;;;;;;;;5058026;28;20021;-82
2023/01/22 10:39:42;;;;;;;11.45;6.30;;;;;;;;;;5059824;28;20021;-80
2023/01/22 10:42:18;;;;;;;11.27;5.63;;;;;;;;;;5059518;28;20393;-81
2023/01/22 10:44:44;;;;;;;12.32;6.15;;;;;;;;;;5059007;28;20031;-80
2023/01/22 10:47:19;;;;;;;11.85;6.18;;;;;;;;;;5058875;28;20024;-81
2023/01/22 10:49:59;;;;;;;13.13;5.72;;;;;;;;;;5061641;28;20025;-80
2023/01/22 10:52:33;;;;;;;10.65;6.45;;;;;;;;;;5062432;28;20075;-80
2023/01/22 10:54:59;;;;;;;12.23;5.43;;;;;;;;;;5058715;28;20024;-76
2023/01/22 10:57:31;;;;;;;13.43;6.80;;;;;;;;;;5053502;28;20028;-75
2023/01/22 11:00:14;;;;;;;10.57;5.65;;;;;;;;;;5053752;28;20029;-76
2023/01/22 11:02:42;;;;;;;11.88;6.25;;;;;;;;;;5052646;28;20055;-77
2023/01/22 11:05:17;;;;;;;12.70;6.13;;;;;;;;;;5053740;28;20029;-77
2023/01/22 11:07:44;;;;;;;11.73;5.18;;;;;;;;;;5052267;28;20031;-77
2023/01/22 11:10:42;;;;;;;13.77;6.55;;;;;;;;;;5054196;28;20366;-77
2023/01/22 11:13:26;;;;;;;11.60;6.03;;;;;;;;;;5053641;28;20029;-77
2023/01/22 11:16:01;;;;;;;12.95;7.15;;;;;;;;;;5059358;28;20037;-81
2023/01/22 11:18:35;;;;;;;14.35;6.93;;;;;;;;;;5059734;28;20052;-81
2023/01/22 11:21:04;;;;;;;7.20;4.25;;;;;;;;;;5059756;28;20060;-80
2023/01/22 11:23:42;;;;;;;12.82;6.85;;;;;;;;;;5059767;28;20029;-82
2023/01/22 11:26:29;;;;;;;11.70;6.28;;;;;;;;;;5061075;28;20449;-81
2023/01/22 11:29:12;;;;;;;13.55;6.40;;;;;;;;;;5058912;28;20060;-81
2023/01/22 11:32:12;;;;;;;11.93;6.45;;;;;;;;;;5058268;28;20021;-80
2023/01/22 11:34:37;;;;;;;12.75;5.88;;;;;;;;;;5060134;28;20025;-80
2023/01/22 11:37:19;;;;;;;14.27;6.80;;;;;;;;;;5058905;28;20035;-81
2023/01/22 11:40:15;;;;;;;12.60;6.47;;;;;;;;;;5060022;28;20078;-82
2023/01/22 11:43:03;;;;;;;10.93;5.22;;;;;;;;;;5061481;28;20033;-81
2023/01/22 11:45:53;;;;;;;14.30;7.45;;;;;;;;;;5059764;28;20047;-81
2023/01/22 11:48:42;;;;;;;12.05;6.43;;;;;;;;;;5061606;28;20021;-82
2023/01/22 11:51:17;;;;;;;9.75;5.40;;;;;;;;;;5058456;28;20529;-81
2023/01/22 11:53:56;;;;;;;11.60;6.13;;;;;;;;;;5060548;28;20021;-81
2023/01/22 11:56:55;;;;;;;12.82;6.28;;;;;;;;;;5073312;28;20021;-82
2023/01/22 11:59:32;;;;;;;10.27;5.40;;;;;;;;;;5076306;28;20082;-81
2023/01/22 12:02:16;;;;;;;10.93;5.45;;;;;;;;;;5071908;28;20044;-81
2023/01/22 12:05:08;;;;;;;10.43;5.25;;;;;;;;;;5061068;28;20025;-80
2023/01/22 12:07:44;;;;;;;12.90;6.20;;;;;;;;;;5060656;28;20040;-81
2023/01/22 12:10:40;;;;;;;12.75;6.28;;;;;;;;;;5061274;28;20017;-82
2023/01/22 12:13:29;;;;;;;16.05;7.75;;;;;;;;;;5060993;28;20482;-82
2023/01/22 12:16:12;;;;;;;16.40;7.68;;;;;;;;;;5061250;28;20025;-82
2023/01/22 12:19:07;;;;;;;13.10;7.32;;;;;;;;;;5063859;28;20024;-81
2023/01/22 12:21:35;;;;;;;;;;;;;;;;;;5062598;28;20421;-83
2023/01/22 12:24:14;;;;;;;10.55;5.85;;;;;;;;;;5061059;28;19984;-82
2023/01/22 12:26:45;;;;;;;15.35;7.75;;;;;;;;;;5062807;28;20447;-82
2023/01/22 12:29:15;;;;;;;14.05;7.22;;;;;;;;;;5064413;28;20051;-82
2023/01/22 12:31:51;;;;;;;14.93;8.15;;;;;;;;;;5065611;28;20485;-82
2023/01/22 12:34:38;;;;;;;18.00;7.38;;;;;;;;;;5066819;28;20067;-80
2023/01/22 12:37:06;;;;;;;13.25;6.95;;;;;;;;;;5064218;28;20501;-81
2023/01/22 12:39:40;;;;;;;15.20;7.25;;;;;;;;;;5063761;28;20028;-80
2023/01/22 12:42:24;;;;;;;;;;;;;;;;;;5064985;28;20067;-82
2023/01/22 12:45:12;;;;;;;12.85;7.32;;;;;;;;;;5064482;28;19912;-82
2023/01/22 12:47:43;;;;;;;14.50;6.82;;;;;;;;;;5063005;28;20029;-80
2023/01/22 12:50:20;;;;;;;13.25;6.53;;;;;;;;;;5063151;28;20035;-81
2023/01/22 12:53:01;;;;;;;12.88;7.57;;;;;;;;;;5063890;28;20021;-81
2023/01/22 12:55:36;;;;;;;14.65;7.60;;;;;;;;;;5063089;28;20535;-82
2023/01/22 12:58:03;;;;;;;12.38;7.10;;;;;;;;;;5063581;28;20035;-81
2023/01/22 13:00:37;;;;;;;12.93;6.90;;;;;;;;;;5065524;28;20029;-81
2023/01/22 13:03:20;;;;;;;11.88;5.97;;;;;;;;;;5064101;28;20028;-81
2023/01/22 13:05:46;;;;;;;14.35;7.18;;;;;;;;;;5064258;28;20029;-80
2023/01/22 13:08:17;;;;;;;14.27;7.40;;;;;;;;;;5065335;28;20489;-80
2023/01/22 13:10:55;;;;;;;16.48;7.72;;;;;;;;;;5069442;28;20025;-80
2023/01/22 13:13:31;;;;;;;15.77;7.78;;;;;;;;;;5075748;28;20028;-79
2023/01/22 13:16:03;;;;;;;12.70;6.95;;;;;;;;;;5079182;28;20032;-82
2023/01/22 13:18:40;;;;;;;16.92;7.88;;;;;;;;;;5079639;28;20056;-81
2023/01/22 13:21:08;;;;;;;15.00;7.47;;;;;;;;;;5079697;28;20051;-81
2023/01/22 13:23:42;;;;;;;13.63;7.10;;;;;;;;;;5079029;28;20497;-81
2023/01/22 13:26:22;;;;;;;14.32;7.13;;;;;;;;;;5078834;28;20053;-81
2023/01/22 13:28:56;;;;;;;11.52;6.60;;;;;;;;;;5077940;28;20033;-79
2023/01/22 13:31:22;;;;;;;13.52;6.75;;;;;;;;;;5079500;28;20024;-80
2023/01/22 13:34:00;;;;;;;11.02;6.72;;;;;;;;;;5079102;28;20024;-82
2023/01/22 13:36:26;;;;;;;11.13;6.10;;;;;;;;;;5080409;28;20025;-82
2023/01/22 13:38:56;;;;;;;13.93;6.88;;;;;;;;;;5080129;28;20052;-83
2023/01/22 13:41:27;;;;;;;12.07;7.13;;;;;;;;;;5080464;28;20081;-83
2023/01/22 13:43:53;;;;;;;11.32;6.10;;;;;;;;;;5074508;28;20032;-81
2023/01/22 13:46:18;;;;;;;14.32;7.65;;;;;;;;;;5057804;28;20398;-80
2023/01/22 13:48:43;;;;;;;11.23;5.93;;;;;;;;;;5057645;28;20158;-80
2023/01/22 13:51:17;;;;;;;10.18;5.90;;;;;;;;;;5056266;28;20032;-81
2023/01/22 13:53:45;;;;;;;11.93;6.15;;;;;;;;;;5057630;28;20105;-80
2023/01/22 13:56:21;;;;;;;12.98;6.53;;;;;;;;;;5057524;28;20056;-81
2023/01/22 13:58:47;;;;;;;11.35;6.55;;;;;;;;;;5058023;28;20029;-81
2023/01/22 14:01:25;;;;;;;11.10;6.50;;;;;;;;;;5057017;28;20043;-82
2023/01/22 14:04:01;;;;;;;11.48;6.18;;;;;;;;;;5057892;28;20021;-81
2023/01/22 14:06:27;;;;;;;13.13;7.00;;;;;;;;;;5057065;28;20037;-81
2023/01/22 14:08:55;;;;;;;13.27;6.97;;;;;;;;;;5057908;28;20088;-82
2023/01/22 14:11:21;;;;;;;12.55;6.63;;;;;;;;;;5058907;28;20029;-81
2023/01/22 14:13:49;;;;;;;12.43;7.13;;;;;;;;;;5059840;28;20047;-79
2023/01/22 14:16:15;;;;;;;11.27;6.45;;;;;;;;;;5058492;28;20048;-81
2023/01/22 14:18:41;;;;;;;11.38;5.95;;;;;;;;;;5057204;28;20033;-78
2023/01/22 14:21:07;;;;;;;10.77;5.93;;;;;;;;;;5060945;28;20555;-79
2023/01/22 14:23:33;;;;;;;13.55;6.88;;;;;;;;;;5059427;28;20025;-78
2023/01/22 14:26:01;;;;;;;11.88;6.32;;;;;;;;;;5056550;28;20025;-78
2023/01/22 14:28:30;;;;;;;13.02;7.35;;;;;;;;;;5060493;28;20068;-78
2023/01/22 14:30:55;;;;;;;13.65;7.18;;;;;;;;;;5060943;28;20113;-79
2023/01/22 14:33:31;;;;;;;15.70;7.18;;;;;;;;;;5063072;28;20017;-78
2023/01/22 14:35:57;;;;;;;11.25;6.13;;;;;;;;;;5061750;28;20025;-78
2023/01/22 14:38:24;;;;;;;11.60;7.03;;;;;;;;;;5061840;28;20028;-78
2023/01/22 14:40:49;;;;;;;11.43;6.78;;;;;;;;;;5060228;28;20025;-78
2023/01/22 14:43:15;;;;;;;12.10;6.25;;;;;;;;;;5063548;28;20039;-79
2023/01/22 14:45:42;;;;;;;10.68;6.65;;;;;;;;;;5059829;28;20029;-80
2023/01/22 14:48:11;;;;;;;10.95;6.30;;;;;;;;;;5055868;28;20031;-78
2023/01/22 14:50:38;;;;;;;10.73;5.63;;;;;;;;;;5057155;28;20036;-78
2023/01/22 14:53:03;;;;;;;12.45;6.18;;;;;;;;;;5057814;28;20412;-79
2023/01/22 14:55:28;;;;;;;11.98;6.05;;;;;;;;;;5056425;28;20080;-79